sensor_id;sensor_type;location;lat;lon;timestamp;P1;durP1;ratioP1;P2;durP2;ratioP2
12267;SDS011;6196;48.398;11.736;2022-12-07T00:01:35;10.00;;;8.43;;
12267;SDS011;6196;48.398;11.736;2022-12-07T00:04:07;11.07;;;8.23;;
12267;SDS011;6196;48.398;11.736;2022-12-07T00:06:38;9.07;;;8.17;;
12267;SDS011;6196;48.398;11.736;2022-12-07T00:09:09;9.67;;;8.37;;
12267;SDS011;6196;48.398;11.736;2022-12-07T00:11:39;9.10;;;8.20;;
12267;SDS011;6196;48.398;11.736;2022-12-07T00:14:07;9.00;;;7.60;;
12267;SDS011;6196;48.398;11.736;2022-12-07T00:16:39;8.37;;;7.47;;
12267;SDS011;6196;48.398;11.736;2022-12-07T00:19:06;9.43;;;8.20;;
12267;SDS011;6196;48.398;11.736;2022-12-07T00:21:34;9.07;;;8.17;;
12267;SDS011;6196;48.398;11.736;2022-12-07T00:24:02;9.57;;;7.90;;
12267;SDS011;6196;48.398;11.736;2022-12-07T00:26:38;10.13;;;8.40;;
12267;SDS011;6196;48.398;11.736;2022-12-07T00:29:07;9.40;;;8.00;;
12267;SDS011;6196;48.398;11.736;2022-12-07T00:32:00;9.47;;;8.03;;
12267;SDS011;6196;48.398;11.736;2022-12-07T00:34:27;9.00;;;8.10;;
12267;SDS011;6196;48.398;11.736;2022-12-07T00:36:53;10.33;;;8.77;;
12267;SDS011;6196;48.398;11.736;2022-12-07T00:39:20;9.87;;;8.53;;
12267;SDS011;6196;48.398;11.736;2022-12-07T00:41:47;10.73;;;9.00;;
12267;SDS011;6196;48.398;11.736;2022-12-07T00:44:14;9.73;;;8.07;;
12267;SDS011;6196;48.398;11.736;2022-12-07T00:46:41;9.30;;;8.40;;
12267;SDS011;6196;48.398;11.736;2022-12-07T00:49:08;9.07;;;7.60;;
12267;SDS011;6196;48.398;11.736;2022-12-07T00:51:34;10.67;;;8.40;;
12267;SDS011;6196;48.398;11.736;2022-12-07T00:54:01;10.77;;;8.67;;
12267;SDS011;6196;48.398;11.736;2022-12-07T00:56:29;9.40;;;8.23;;
12267;SDS011;6196;48.398;11.736;2022-12-07T00:58:58;9.13;;;7.93;;
12267;SDS011;6196;48.398;11.736;2022-12-07T01:01:29;9.40;;;7.97;;
12267;SDS011;6196;48.398;11.736;2022-12-07T01:03:58;11.43;;;8.93;;
12267;SDS011;6196;48.398;11.736;2022-12-07T01:06:27;10.10;;;8.57;;
12267;SDS011;6196;48.398;11.736;2022-12-07T01:08:55;10.50;;;8.93;;
12267;SDS011;6196;48.398;11.736;2022-12-07T01:11:26;8.67;;;7.67;;
12267;SDS011;6196;48.398;11.736;2022-12-07T01:13:56;9.13;;;8.13;;
12267;SDS011;6196;48.398;11.736;2022-12-07T01:16:25;10.83;;;8.93;;
12267;SDS011;6196;48.398;11.736;2022-12-07T01:18:55;10.13;;;8.30;;
12267;SDS011;6196;48.398;11.736;2022-12-07T01:21:24;10.97;;;8.53;;
12267;SDS011;6196;48.398;11.736;2022-12-07T01:23:53;9.57;;;8.13;;
12267;SDS011;6196;48.398;11.736;2022-12-07T01:26:21;9.93;;;8.43;;
12267;SDS011;6196;48.398;11.736;2022-12-07T01:28:50;10.07;;;8.57;;
12267;SDS011;6196;48.398;11.736;2022-12-07T01:31:19;9.97;;;8.43;;
12267;SDS011;6196;48.398;11.736;2022-12-07T01:33:49;9.03;;;8.07;;
12267;SDS011;6196;48.398;11.736;2022-12-07T01:36:32;9.57;;;7.83;;
12267;SDS011;6196;48.398;11.736;2022-12-07T01:39:03;10.07;;;8.50;;
12267;SDS011;6196;48.398;11.736;2022-12-07T01:41:34;9.20;;;8.07;;
12267;SDS011;6196;48.398;11.736;2022-12-07T01:44:25;9.43;;;7.97;;
12267;SDS011;6196;48.398;11.736;2022-12-07T01:46:59;9.43;;;8.13;;
12267;SDS011;6196;48.398;11.736;2022-12-07T01:49:45;8.90;;;8.00;;
12267;SDS011;6196;48.398;11.736;2022-12-07T01:52:25;9.73;;;7.83;;
12267;SDS011;6196;48.398;11.736;2022-12-07T01:54:57;11.93;;;8.33;;
12267;SDS011;6196;48.398;11.736;2022-12-07T01:57:30;10.63;;;8.33;;
12267;SDS011;6196;48.398;11.736;2022-12-07T02:00:00;9.47;;;7.90;;
12267;SDS011;6196;48.398;11.736;2022-12-07T02:02:32;9.77;;;8.53;;
12267;SDS011;6196;48.398;11.736;2022-12-07T02:05:08;9.23;;;7.90;;
12267;SDS011;6196;48.398;11.736;2022-12-07T02:07:36;10.47;;;8.57;;
12267;SDS011;6196;48.398;11.736;2022-12-07T02:12:45;10.17;;;8.73;;
12267;SDS011;6196;48.398;11.736;2022-12-07T02:15:26;10.87;;;8.37;;
12267;SDS011;6196;48.398;11.736;2022-12-07T02:24:24;9.57;;;7.57;;
12267;SDS011;6196;48.398;11.736;2022-12-07T02:30:19;11.00;;;8.87;;
12267;SDS011;6196;48.398;11.736;2022-12-07T02:38:19;9.47;;;8.47;;
12267;SDS011;6196;48.398;11.736;2022-12-07T02:41:20;10.63;;;8.70;;
12267;SDS011;6196;48.398;11.736;2022-12-07T02:43:59;9.50;;;7.97;;
12267;SDS011;6196;48.398;11.736;2022-12-07T02:46:32;8.93;;;8.03;;
12267;SDS011;6196;48.398;11.736;2022-12-07T02:49:04;10.27;;;8.73;;
12267;SDS011;6196;48.398;11.736;2022-12-07T02:51:32;9.77;;;8.60;;
12267;SDS011;6196;48.398;11.736;2022-12-07T02:54:00;9.87;;;8.87;;
12267;SDS011;6196;48.398;11.736;2022-12-07T03:10:35;10.23;;;8.37;;
12267;SDS011;6196;48.398;11.736;2022-12-07T03:19:37;8.50;;;7.60;;
12267;SDS011;6196;48.398;11.736;2022-12-07T03:22:07;11.10;;;9.13;;
12267;SDS011;6196;48.398;11.736;2022-12-07T03:24:47;9.33;;;8.20;;
12267;SDS011;6196;48.398;11.736;2022-12-07T03:27:54;10.67;;;8.77;;
12267;SDS011;6196;48.398;11.736;2022-12-07T03:30:27;11.27;;;9.07;;
12267;SDS011;6196;48.398;11.736;2022-12-07T03:33:23;11.77;;;8.43;;
12267;SDS011;6196;48.398;11.736;2022-12-07T03:36:00;10.57;;;8.50;;
12267;SDS011;6196;48.398;11.736;2022-12-07T03:38:33;11.93;;;8.80;;
12267;SDS011;6196;48.398;11.736;2022-12-07T03:41:08;10.10;;;8.80;;
12267;SDS011;6196;48.398;11.736;2022-12-07T03:43:49;10.83;;;8.67;;
12267;SDS011;6196;48.398;11.736;2022-12-07T03:49:26;11.13;;;8.60;;
12267;SDS011;6196;48.398;11.736;2022-12-07T03:54:56;10.27;;;8.30;;
12267;SDS011;6196;48.398;11.736;2022-12-07T03:57:27;12.73;;;8.70;;
12267;SDS011;6196;48.398;11.736;2022-12-07T03:59:56;11.80;;;9.40;;
12267;SDS011;6196;48.398;11.736;2022-12-07T04:02:25;11.60;;;9.73;;
12267;SDS011;6196;48.398;11.736;2022-12-07T04:04:55;11.97;;;9.50;;
12267;SDS011;6196;48.398;11.736;2022-12-07T04:07:22;12.80;;;10.27;;
12267;SDS011;6196;48.398;11.736;2022-12-07T04:09:49;12.63;;;9.90;;
12267;SDS011;6196;48.398;11.736;2022-12-07T04:12:16;11.13;;;9.57;;
12267;SDS011;6196;48.398;11.736;2022-12-07T04:14:43;13.03;;;10.17;;
12267;SDS011;6196;48.398;11.736;2022-12-07T04:17:10;12.60;;;9.57;;
12267;SDS011;6196;48.398;11.736;2022-12-07T04:19:36;11.73;;;9.37;;
12267;SDS011;6196;48.398;11.736;2022-12-07T04:22:04;12.37;;;9.77;;
12267;SDS011;6196;48.398;11.736;2022-12-07T04:24:31;11.93;;;10.63;;
12267;SDS011;6196;48.398;11.736;2022-12-07T04:26:59;10.80;;;9.53;;
12267;SDS011;6196;48.398;11.736;2022-12-07T04:29:26;10.77;;;9.30;;
12267;SDS011;6196;48.398;11.736;2022-12-07T04:31:53;12.60;;;10.47;;
12267;SDS011;6196;48.398;11.736;2022-12-07T04:34:21;13.27;;;10.37;;
12267;SDS011;6196;48.398;11.736;2022-12-07T04:36:48;12.60;;;10.50;;
12267;SDS011;6196;48.398;11.736;2022-12-07T04:41:53;12.10;;;9.53;;
12267;SDS011;6196;48.398;11.736;2022-12-07T04:44:22;11.77;;;9.67;;
12267;SDS011;6196;48.398;11.736;2022-12-07T04:46:50;12.57;;;9.40;;
12267;SDS011;6196;48.398;11.736;2022-12-07T04:49:18;10.63;;;9.47;;
12267;SDS011;6196;48.398;11.736;2022-12-07T04:51:45;13.53;;;9.60;;
12267;SDS011;6196;48.398;11.736;2022-12-07T04:54:13;11.93;;;10.07;;
12267;SDS011;6196;48.398;11.736;2022-12-07T04:56:41;11.37;;;10.00;;
12267;SDS011;6196;48.398;11.736;2022-12-07T04:59:09;12.87;;;10.17;;
12267;SDS011;6196;48.398;11.736;2022-12-07T05:01:37;13.83;;;9.60;;
12267;SDS011;6196;48.398;11.736;2022-12-07T05:04:05;12.83;;;10.37;;
12267;SDS011;6196;48.398;11.736;2022-12-07T05:06:32;13.23;;;9.33;;
12267;SDS011;6196;48.398;11.736;2022-12-07T05:08:59;11.97;;;10.37;;
12267;SDS011;6196;48.398;11.736;2022-12-07T05:11:26;13.87;;;10.47;;
12267;SDS011;6196;48.398;11.736;2022-12-07T05:16:46;11.03;;;9.83;;
12267;SDS011;6196;48.398;11.736;2022-12-07T05:19:16;13.53;;;10.90;;
12267;SDS011;6196;48.398;11.736;2022-12-07T05:21:44;13.03;;;10.17;;
12267;SDS011;6196;48.398;11.736;2022-12-07T05:24:13;12.17;;;10.23;;
12267;SDS011;6196;48.398;11.736;2022-12-07T05:26:41;11.83;;;9.37;;
12267;SDS011;6196;48.398;11.736;2022-12-07T05:29:13;11.47;;;9.47;;
12267;SDS011;6196;48.398;11.736;2022-12-07T05:31:41;11.63;;;9.10;;
12267;SDS011;6196;48.398;11.736;2022-12-07T05:34:09;12.43;;;9.13;;
12267;SDS011;6196;48.398;11.736;2022-12-07T05:36:37;12.90;;;10.23;;
12267;SDS011;6196;48.398;11.736;2022-12-07T05:39:03;11.77;;;9.70;;
12267;SDS011;6196;48.398;11.736;2022-12-07T05:41:30;12.50;;;9.93;;
12267;SDS011;6196;48.398;11.736;2022-12-07T05:44:16;13.20;;;9.60;;
12267;SDS011;6196;48.398;11.736;2022-12-07T05:46:43;13.37;;;10.93;;
12267;SDS011;6196;48.398;11.736;2022-12-07T05:49:09;13.40;;;10.13;;
12267;SDS011;6196;48.398;11.736;2022-12-07T05:51:36;12.47;;;10.13;;
12267;SDS011;6196;48.398;11.736;2022-12-07T05:54:03;13.23;;;9.97;;
12267;SDS011;6196;48.398;11.736;2022-12-07T05:56:30;11.67;;;10.10;;
12267;SDS011;6196;48.398;11.736;2022-12-07T05:58:57;15.10;;;10.73;;
12267;SDS011;6196;48.398;11.736;2022-12-07T06:01:42;12.93;;;10.60;;
12267;SDS011;6196;48.398;11.736;2022-12-07T06:04:09;13.47;;;10.90;;
12267;SDS011;6196;48.398;11.736;2022-12-07T06:06:36;15.67;;;10.93;;
12267;SDS011;6196;48.398;11.736;2022-12-07T06:09:03;11.07;;;9.43;;
12267;SDS011;6196;48.398;11.736;2022-12-07T06:11:30;12.93;;;10.40;;
12267;SDS011;6196;48.398;11.736;2022-12-07T06:14:15;13.07;;;10.37;;
12267;SDS011;6196;48.398;11.736;2022-12-07T06:16:42;13.37;;;10.60;;
12267;SDS011;6196;48.398;11.736;2022-12-07T06:19:09;12.93;;;10.47;;
12267;SDS011;6196;48.398;11.736;2022-12-07T06:21:36;13.33;;;10.47;;
12267;SDS011;6196;48.398;11.736;2022-12-07T06:24:03;12.33;;;10.70;;
12267;SDS011;6196;48.398;11.736;2022-12-07T06:26:30;11.60;;;10.23;;
12267;SDS011;6196;48.398;11.736;2022-12-07T06:28:57;12.03;;;9.83;;
12267;SDS011;6196;48.398;11.736;2022-12-07T06:31:24;11.10;;;9.90;;
12267;SDS011;6196;48.398;11.736;2022-12-07T06:33:51;13.10;;;10.93;;
12267;SDS011;6196;48.398;11.736;2022-12-07T06:36:26;11.90;;;10.23;;
12267;SDS011;6196;48.398;11.736;2022-12-07T06:38:53;13.20;;;11.00;;
12267;SDS011;6196;48.398;11.736;2022-12-07T06:41:21;12.80;;;10.70;;
12267;SDS011;6196;48.398;11.736;2022-12-07T06:43:48;13.47;;;10.97;;
12267;SDS011;6196;48.398;11.736;2022-12-07T06:46:21;12.93;;;10.47;;
12267;SDS011;6196;48.398;11.736;2022-12-07T06:48:48;12.10;;;10.23;;
12267;SDS011;6196;48.398;11.736;2022-12-07T06:51:15;12.60;;;10.73;;
12267;SDS011;6196;48.398;11.736;2022-12-07T06:53:42;15.00;;;10.77;;
12267;SDS011;6196;48.398;11.736;2022-12-07T06:56:09;14.00;;;10.60;;
12267;SDS011;6196;48.398;11.736;2022-12-07T06:58:36;13.53;;;10.93;;
12267;SDS011;6196;48.398;11.736;2022-12-07T07:01:07;13.20;;;10.27;;
12267;SDS011;6196;48.398;11.736;2022-12-07T07:03:37;14.10;;;10.77;;
12267;SDS011;6196;48.398;11.736;2022-12-07T07:06:04;14.17;;;11.23;;
12267;SDS011;6196;48.398;11.736;2022-12-07T07:08:32;13.23;;;11.30;;
12267;SDS011;6196;48.398;11.736;2022-12-07T07:11:00;12.70;;;10.97;;
12267;SDS011;6196;48.398;11.736;2022-12-07T07:13:27;14.70;;;11.20;;
12267;SDS011;6196;48.398;11.736;2022-12-07T07:15:54;13.47;;;11.40;;
12267;SDS011;6196;48.398;11.736;2022-12-07T07:18:22;15.77;;;11.37;;
12267;SDS011;6196;48.398;11.736;2022-12-07T07:20:49;17.47;;;11.97;;
12267;SDS011;6196;48.398;11.736;2022-12-07T07:23:17;13.07;;;10.80;;
12267;SDS011;6196;48.398;11.736;2022-12-07T07:25:45;14.67;;;10.93;;
12267;SDS011;6196;48.398;11.736;2022-12-07T07:28:12;13.07;;;10.87;;
12267;SDS011;6196;48.398;11.736;2022-12-07T07:30:40;15.00;;;11.27;;
12267;SDS011;6196;48.398;11.736;2022-12-07T07:33:09;14.10;;;11.27;;
12267;SDS011;6196;48.398;11.736;2022-12-07T07:35:37;14.27;;;11.40;;
12267;SDS011;6196;48.398;11.736;2022-12-07T07:38:05;15.47;;;12.10;;
12267;SDS011;6196;48.398;11.736;2022-12-07T07:40:33;14.93;;;11.83;;
12267;SDS011;6196;48.398;11.736;2022-12-07T07:43:01;14.43;;;11.13;;
12267;SDS011;6196;48.398;11.736;2022-12-07T07:45:28;14.87;;;11.67;;
12267;SDS011;6196;48.398;11.736;2022-12-07T07:47:55;14.70;;;10.70;;
12267;SDS011;6196;48.398;11.736;2022-12-07T07:50:22;14.03;;;10.87;;
12267;SDS011;6196;48.398;11.736;2022-12-07T07:52:49;13.43;;;11.37;;
12267;SDS011;6196;48.398;11.736;2022-12-07T07:55:17;13.57;;;11.43;;
12267;SDS011;6196;48.398;11.736;2022-12-07T07:57:44;13.40;;;11.23;;
12267;SDS011;6196;48.398;11.736;2022-12-07T08:00:19;13.43;;;11.20;;
12267;SDS011;6196;48.398;11.736;2022-12-07T08:02:47;14.20;;;11.43;;
12267;SDS011;6196;48.398;11.736;2022-12-07T08:05:15;14.03;;;11.07;;
12267;SDS011;6196;48.398;11.736;2022-12-07T08:07:43;12.67;;;10.50;;
12267;SDS011;6196;48.398;11.736;2022-12-07T08:10:11;12.97;;;10.80;;
12267;SDS011;6196;48.398;11.736;2022-12-07T08:12:40;13.80;;;10.77;;
12267;SDS011;6196;48.398;11.736;2022-12-07T08:15:27;12.93;;;10.63;;
12267;SDS011;6196;48.398;11.736;2022-12-07T08:17:56;13.50;;;10.70;;
12267;SDS011;6196;48.398;11.736;2022-12-07T08:20:23;12.43;;;10.50;;
12267;SDS011;6196;48.398;11.736;2022-12-07T08:22:50;11.63;;;10.13;;
12267;SDS011;6196;48.398;11.736;2022-12-07T08:25:17;13.37;;;10.70;;
12267;SDS011;6196;48.398;11.736;2022-12-07T08:27:44;12.60;;;10.40;;
12267;SDS011;6196;48.398;11.736;2022-12-07T08:30:11;12.83;;;10.27;;
12267;SDS011;6196;48.398;11.736;2022-12-07T08:32:38;13.50;;;10.73;;
12267;SDS011;6196;48.398;11.736;2022-12-07T08:35:05;12.87;;;11.07;;
12267;SDS011;6196;48.398;11.736;2022-12-07T08:37:33;11.83;;;10.43;;
12267;SDS011;6196;48.398;11.736;2022-12-07T08:40:00;13.53;;;11.30;;
12267;SDS011;6196;48.398;11.736;2022-12-07T08:42:27;14.37;;;11.60;;
12267;SDS011;6196;48.398;11.736;2022-12-07T08:44:56;14.60;;;11.03;;
12267;SDS011;6196;48.398;11.736;2022-12-07T08:47:24;15.00;;;11.80;;
12267;SDS011;6196;48.398;11.736;2022-12-07T08:49:51;11.73;;;10.53;;
12267;SDS011;6196;48.398;11.736;2022-12-07T08:52:19;12.33;;;10.87;;
12267;SDS011;6196;48.398;11.736;2022-12-07T08:54:46;11.60;;;9.77;;
12267;SDS011;6196;48.398;11.736;2022-12-07T08:57:13;10.93;;;9.83;;
12267;SDS011;6196;48.398;11.736;2022-12-07T08:59:40;11.17;;;10.07;;
12267;SDS011;6196;48.398;11.736;2022-12-07T09:02:07;10.43;;;9.40;;
12267;SDS011;6196;48.398;11.736;2022-12-07T09:04:34;11.00;;;9.97;;
12267;SDS011;6196;48.398;11.736;2022-12-07T09:07:01;10.13;;;9.13;;
12267;SDS011;6196;48.398;11.736;2022-12-07T09:09:28;10.27;;;9.10;;
12267;SDS011;6196;48.398;11.736;2022-12-07T09:11:55;10.70;;;9.60;;
12267;SDS011;6196;48.398;11.736;2022-12-07T09:14:22;9.47;;;8.57;;
12267;SDS011;6196;48.398;11.736;2022-12-07T09:16:49;10.90;;;9.90;;
12267;SDS011;6196;48.398;11.736;2022-12-07T09:19:16;10.70;;;9.70;;
12267;SDS011;6196;48.398;11.736;2022-12-07T09:21:43;10.90;;;9.80;;
12267;SDS011;6196;48.398;11.736;2022-12-07T09:24:11;11.07;;;9.97;;
12267;SDS011;6196;48.398;11.736;2022-12-07T09:26:39;11.17;;;10.07;;
12267;SDS011;6196;48.398;11.736;2022-12-07T09:29:06;13.10;;;9.70;;
12267;SDS011;6196;48.398;11.736;2022-12-07T09:31:35;12.50;;;10.90;;
12267;SDS011;6196;48.398;11.736;2022-12-07T09:34:03;11.17;;;10.03;;
12267;SDS011;6196;48.398;11.736;2022-12-07T09:36:32;11.50;;;10.30;;
12267;SDS011;6196;48.398;11.736;2022-12-07T09:38:59;12.67;;;11.30;;
12267;SDS011;6196;48.398;11.736;2022-12-07T09:41:26;11.70;;;10.23;;
12267;SDS011;6196;48.398;11.736;2022-12-07T09:43:58;11.83;;;10.60;;
12267;SDS011;6196;48.398;11.736;2022-12-07T09:46:41;11.83;;;10.60;;
12267;SDS011;6196;48.398;11.736;2022-12-07T09:49:14;11.57;;;10.37;;
12267;SDS011;6196;48.398;11.736;2022-12-07T09:51:46;11.93;;;10.63;;
12267;SDS011;6196;48.398;11.736;2022-12-07T09:54:14;12.60;;;11.30;;
12267;SDS011;6196;48.398;11.736;2022-12-07T09:56:43;12.90;;;10.67;;
12267;SDS011;6196;48.398;11.736;2022-12-07T09:59:13;11.70;;;10.50;;
12267;SDS011;6196;48.398;11.736;2022-12-07T10:01:44;12.37;;;10.57;;
12267;SDS011;6196;48.398;11.736;2022-12-07T10:04:15;13.70;;;11.20;;
12267;SDS011;6196;48.398;11.736;2022-12-07T10:06:47;12.47;;;10.60;;
12267;SDS011;6196;48.398;11.736;2022-12-07T10:09:17;13.00;;;10.97;;
12267;SDS011;6196;48.398;11.736;2022-12-07T10:12:04;11.70;;;10.50;;
12267;SDS011;6196;48.398;11.736;2022-12-07T10:14:38;13.03;;;10.53;;
12267;SDS011;6196;48.398;11.736;2022-12-07T10:25:32;9.73;;;8.83;;
12267;SDS011;6196;48.398;11.736;2022-12-07T10:33:36;9.33;;;8.43;;
12267;SDS011;6196;48.398;11.736;2022-12-07T10:36:27;9.80;;;8.83;;
12267;SDS011;6196;48.398;11.736;2022-12-07T10:39:03;11.07;;;8.97;;
12267;SDS011;6196;48.398;11.736;2022-12-07T10:41:53;11.07;;;9.40;;
12267;SDS011;6196;48.398;11.736;2022-12-07T10:44:29;10.00;;;8.97;;
12267;SDS011;6196;48.398;11.736;2022-12-07T10:47:01;11.40;;;9.77;;
12267;SDS011;6196;48.398;11.736;2022-12-07T10:55:07;13.00;;;10.60;;
12267;SDS011;6196;48.398;11.736;2022-12-07T10:57:55;12.13;;;9.70;;
12267;SDS011;6196;48.398;11.736;2022-12-07T11:00:51;12.37;;;10.13;;
12267;SDS011;6196;48.398;11.736;2022-12-07T11:03:37;11.03;;;9.83;;
12267;SDS011;6196;48.398;11.736;2022-12-07T11:15:31;10.23;;;9.13;;
12267;SDS011;6196;48.398;11.736;2022-12-07T11:24:22;10.70;;;9.40;;
12267;SDS011;6196;48.398;11.736;2022-12-07T11:27:10;11.97;;;9.50;;
12267;SDS011;6196;48.398;11.736;2022-12-07T11:29:51;9.77;;;8.77;;
12267;SDS011;6196;48.398;11.736;2022-12-07T11:38:22;10.23;;;8.77;;
12267;SDS011;6196;48.398;11.736;2022-12-07T11:41:01;9.80;;;8.60;;
12267;SDS011;6196;48.398;11.736;2022-12-07T11:49:47;11.43;;;8.87;;
12267;SDS011;6196;48.398;11.736;2022-12-07T11:58:18;9.73;;;8.43;;
12267;SDS011;6196;48.398;11.736;2022-12-07T12:03:54;9.70;;;8.27;;
12267;SDS011;6196;48.398;11.736;2022-12-07T12:06:27;9.50;;;7.57;;
12267;SDS011;6196;48.398;11.736;2022-12-07T12:17:50;8.70;;;7.80;;
12267;SDS011;6196;48.398;11.736;2022-12-07T12:23:19;10.50;;;7.67;;
12267;SDS011;6196;48.398;11.736;2022-12-07T12:26:00;8.90;;;7.60;;
12267;SDS011;6196;48.398;11.736;2022-12-07T12:28:40;8.77;;;7.30;;
12267;SDS011;6196;48.398;11.736;2022-12-07T12:34:00;9.80;;;7.63;;
12267;SDS011;6196;48.398;11.736;2022-12-07T12:36:48;8.60;;;7.27;;
12267;SDS011;6196;48.398;11.736;2022-12-07T12:39:16;7.70;;;6.80;;
12267;SDS011;6196;48.398;11.736;2022-12-07T12:51:43;8.93;;;7.00;;
12267;SDS011;6196;48.398;11.736;2022-12-07T12:54:22;7.40;;;6.30;;
12267;SDS011;6196;48.398;11.736;2022-12-07T12:57:05;7.40;;;6.50;;
12267;SDS011;6196;48.398;11.736;2022-12-07T13:02:21;7.27;;;6.20;;
12267;SDS011;6196;48.398;11.736;2022-12-07T13:04:53;7.50;;;6.03;;
12267;SDS011;6196;48.398;11.736;2022-12-07T13:07:47;7.17;;;6.07;;
12267;SDS011;6196;48.398;11.736;2022-12-07T13:13:00;7.37;;;6.13;;
12267;SDS011;6196;48.398;11.736;2022-12-07T13:23:51;7.10;;;5.37;;
12267;SDS011;6196;48.398;11.736;2022-12-07T13:29:17;7.53;;;5.77;;
12267;SDS011;6196;48.398;11.736;2022-12-07T13:34:35;7.33;;;5.20;;
12267;SDS011;6196;48.398;11.736;2022-12-07T13:37:10;6.53;;;4.93;;
12267;SDS011;6196;48.398;11.736;2022-12-07T13:39:57;7.23;;;5.63;;
12267;SDS011;6196;48.398;11.736;2022-12-07T13:42:28;7.70;;;5.43;;
12267;SDS011;6196;48.398;11.736;2022-12-07T13:44:56;6.93;;;5.60;;
12267;SDS011;6196;48.398;11.736;2022-12-07T13:50:01;7.80;;;5.30;;
12267;SDS011;6196;48.398;11.736;2022-12-07T13:52:54;6.27;;;5.50;;
12267;SDS011;6196;48.398;11.736;2022-12-07T13:55:23;7.27;;;4.80;;
12267;SDS011;6196;48.398;11.736;2022-12-07T13:57:51;8.23;;;5.47;;
12267;SDS011;6196;48.398;11.736;2022-12-07T14:03:00;5.77;;;4.93;;
12267;SDS011;6196;48.398;11.736;2022-12-07T14:08:43;6.53;;;4.87;;
12267;SDS011;6196;48.398;11.736;2022-12-07T14:11:13;6.40;;;5.43;;
12267;SDS011;6196;48.398;11.736;2022-12-07T14:16:34;7.13;;;5.33;;
12267;SDS011;6196;48.398;11.736;2022-12-07T14:19:04;6.40;;;4.83;;
12267;SDS011;6196;48.398;11.736;2022-12-07T14:22:21;6.77;;;5.17;;
12267;SDS011;6196;48.398;11.736;2022-12-07T14:27:39;6.73;;;4.77;;
12267;SDS011;6196;48.398;11.736;2022-12-07T14:30:22;6.60;;;4.90;;
12267;SDS011;6196;48.398;11.736;2022-12-07T14:32:52;6.07;;;5.47;;
12267;SDS011;6196;48.398;11.736;2022-12-07T14:35:23;5.57;;;5.07;;
12267;SDS011;6196;48.398;11.736;2022-12-07T14:37:51;8.33;;;5.30;;
12267;SDS011;6196;48.398;11.736;2022-12-07T14:40:19;5.70;;;5.00;;
12267;SDS011;6196;48.398;11.736;2022-12-07T14:43:05;6.27;;;5.37;;
12267;SDS011;6196;48.398;11.736;2022-12-07T14:45:37;5.93;;;5.13;;
12267;SDS011;6196;48.398;11.736;2022-12-07T14:48:06;5.73;;;4.93;;
12267;SDS011;6196;48.398;11.736;2022-12-07T14:50:57;5.83;;;4.80;;
12267;SDS011;6196;48.398;11.736;2022-12-07T14:53:46;6.50;;;5.40;;
12267;SDS011;6196;48.398;11.736;2022-12-07T14:56:23;5.93;;;5.27;;
12267;SDS011;6196;48.398;11.736;2022-12-07T14:58:50;6.00;;;4.73;;
12267;SDS011;6196;48.398;11.736;2022-12-07T15:01:17;7.40;;;4.90;;
12267;SDS011;6196;48.398;11.736;2022-12-07T15:03:44;7.53;;;4.90;;
12267;SDS011;6196;48.398;11.736;2022-12-07T15:06:15;7.47;;;5.17;;
12267;SDS011;6196;48.398;11.736;2022-12-07T15:08:44;6.60;;;5.23;;
12267;SDS011;6196;48.398;11.736;2022-12-07T15:11:12;6.97;;;5.90;;
12267;SDS011;6196;48.398;11.736;2022-12-07T15:13:40;8.03;;;5.40;;
12267;SDS011;6196;48.398;11.736;2022-12-07T15:16:25;8.13;;;5.77;;
12267;SDS011;6196;48.398;11.736;2022-12-07T15:18:55;6.83;;;5.67;;
12267;SDS011;6196;48.398;11.736;2022-12-07T15:21:43;6.83;;;5.50;;
12267;SDS011;6196;48.398;11.736;2022-12-07T15:24:11;8.50;;;5.57;;
12267;SDS011;6196;48.398;11.736;2022-12-07T15:26:38;8.43;;;5.97;;
12267;SDS011;6196;48.398;11.736;2022-12-07T15:29:06;8.03;;;6.23;;
12267;SDS011;6196;48.398;11.736;2022-12-07T15:31:34;9.37;;;6.43;;
12267;SDS011;6196;48.398;11.736;2022-12-07T15:34:21;7.97;;;6.03;;
12267;SDS011;6196;48.398;11.736;2022-12-07T15:37:01;7.67;;;6.30;;
12267;SDS011;6196;48.398;11.736;2022-12-07T15:39:28;8.70;;;6.30;;
12267;SDS011;6196;48.398;11.736;2022-12-07T15:41:55;8.23;;;6.57;;
12267;SDS011;6196;48.398;11.736;2022-12-07T15:44:22;9.03;;;6.50;;
12267;SDS011;6196;48.398;11.736;2022-12-07T15:47:07;10.77;;;7.43;;
12267;SDS011;6196;48.398;11.736;2022-12-07T15:49:34;9.83;;;7.33;;
12267;SDS011;6196;48.398;11.736;2022-12-07T15:52:01;8.80;;;6.67;;
12267;SDS011;6196;48.398;11.736;2022-12-07T15:54:28;9.67;;;6.80;;
12267;SDS011;6196;48.398;11.736;2022-12-07T15:56:56;11.23;;;6.90;;
12267;SDS011;6196;48.398;11.736;2022-12-07T15:59:23;11.67;;;7.03;;
12267;SDS011;6196;48.398;11.736;2022-12-07T16:01:52;15.53;;;11.27;;
12267;SDS011;6196;48.398;11.736;2022-12-07T16:04:19;13.90;;;10.33;;
12267;SDS011;6196;48.398;11.736;2022-12-07T16:06:46;10.53;;;7.77;;
12267;SDS011;6196;48.398;11.736;2022-12-07T16:09:13;11.67;;;8.10;;
12267;SDS011;6196;48.398;11.736;2022-12-07T16:11:41;10.23;;;8.00;;
12267;SDS011;6196;48.398;11.736;2022-12-07T16:14:07;9.93;;;7.57;;
12267;SDS011;6196;48.398;11.736;2022-12-07T16:16:34;8.90;;;7.13;;
12267;SDS011;6196;48.398;11.736;2022-12-07T16:19:01;11.97;;;8.50;;
12267;SDS011;6196;48.398;11.736;2022-12-07T16:21:28;12.17;;;8.90;;
12267;SDS011;6196;48.398;11.736;2022-12-07T16:23:57;11.23;;;8.40;;
12267;SDS011;6196;48.398;11.736;2022-12-07T16:26:25;11.40;;;8.00;;
12267;SDS011;6196;48.398;11.736;2022-12-07T16:28:52;15.30;;;8.40;;
12267;SDS011;6196;48.398;11.736;2022-12-07T16:31:22;11.43;;;7.73;;
12267;SDS011;6196;48.398;11.736;2022-12-07T16:33:56;9.43;;;7.77;;
12267;SDS011;6196;48.398;11.736;2022-12-07T16:36:24;10.87;;;8.50;;
12267;SDS011;6196;48.398;11.736;2022-12-07T16:39:13;9.03;;;7.63;;
12267;SDS011;6196;48.398;11.736;2022-12-07T16:41:40;10.57;;;7.57;;
12267;SDS011;6196;48.398;11.736;2022-12-07T16:44:09;10.53;;;8.13;;
12267;SDS011;6196;48.398;11.736;2022-12-07T16:46:38;10.70;;;7.90;;
12267;SDS011;6196;48.398;11.736;2022-12-07T16:49:05;11.20;;;7.60;;
12267;SDS011;6196;48.398;11.736;2022-12-07T16:51:33;8.60;;;7.20;;
12267;SDS011;6196;48.398;11.736;2022-12-07T16:54:03;10.63;;;7.40;;
12267;SDS011;6196;48.398;11.736;2022-12-07T16:56:29;10.70;;;8.10;;
12267;SDS011;6196;48.398;11.736;2022-12-07T16:59:00;9.60;;;7.43;;
12267;SDS011;6196;48.398;11.736;2022-12-07T17:01:27;9.83;;;7.60;;
12267;SDS011;6196;48.398;11.736;2022-12-07T17:03:55;10.23;;;7.50;;
12267;SDS011;6196;48.398;11.736;2022-12-07T17:06:26;10.73;;;7.10;;
12267;SDS011;6196;48.398;11.736;2022-12-07T17:08:55;11.13;;;7.20;;
12267;SDS011;6196;48.398;11.736;2022-12-07T17:11:27;11.03;;;7.67;;
12267;SDS011;6196;48.398;11.736;2022-12-07T17:13:57;10.93;;;6.93;;
12267;SDS011;6196;48.398;11.736;2022-12-07T17:16:42;9.03;;;6.40;;
12267;SDS011;6196;48.398;11.736;2022-12-07T17:19:10;9.87;;;7.10;;
12267;SDS011;6196;48.398;11.736;2022-12-07T17:21:40;8.70;;;6.30;;
12267;SDS011;6196;48.398;11.736;2022-12-07T17:24:09;10.63;;;6.67;;
12267;SDS011;6196;48.398;11.736;2022-12-07T17:26:37;9.07;;;6.53;;
12267;SDS011;6196;48.398;11.736;2022-12-07T17:29:05;10.60;;;7.57;;
12267;SDS011;6196;48.398;11.736;2022-12-07T17:31:34;10.53;;;7.57;;
12267;SDS011;6196;48.398;11.736;2022-12-07T17:34:01;9.63;;;6.87;;
12267;SDS011;6196;48.398;11.736;2022-12-07T17:36:29;12.07;;;10.77;;
12267;SDS011;6196;48.398;11.736;2022-12-07T17:38:57;9.90;;;8.90;;
12267;SDS011;6196;48.398;11.736;2022-12-07T17:41:27;10.07;;;8.47;;
12267;SDS011;6196;48.398;11.736;2022-12-07T17:44:15;7.60;;;6.00;;